Newhaven, United Kingdom
Current Conditions -  °F | °C
As of 4:20 PM on Sunday 23 Nov 2014 (Local Time) from EGKA Reporting Station
Light Rain Light Rain  
Wind Chill: 38°   Ceiling: Unl
Heat Index: 45°   Visibility: 4mi
Dew Point: 43°   Wind: 15mph
Humidity: 93%   Direction: 350°N
Pressure: 30.03"   Gusts: NA
Location:  50.8°N, 0.06°E
Report Text: EGKA 231620Z 35013KT 6000 -RA FEW009 SCT020 07/06 Q1017
Loading
Personal Weather Stations






























Interactive Weather Map New forecast layout! Learn more

10-Day Weather Forecast

Advertisements
Track Severe Weather on mobile